Página principal
METAR-TAF:

METAR-TAF

Aeroportos :

Aeroporto Internacional Príncipe Said Ibrahim

Moroni, Comores

latitude: 11-32S, longitude: 043-16E, altura: 29 m

Observação actual do tempo

O boletim foi feito há 47 minutos, às 16:00 UTC
Vento 2 kt de su-sudoeste
Temperatura 27°C
Humidade 74%
Pressão 1015 hPa
Visibilidade 10 km ou mais
Poucas nuvensa uma altura de 2000 ft
Nuvens dispersasa uma altura de 3000 ft

METAR: FMCH 201600Z 21002KT 9999 FEW020 SCT030 27/22 Q1015 NOSIG

Hora: 19:47 (16:47 UTC)

Previsão

O boletim foi feito há 5 horas e 47 minutos, às 11:00 UTC
Previsão válida de 20 às 12 UTC a 21 às 18 UTC
Vento 10 kt de oes-sudoeste
Visibilidade 10 km ou mais
Poucas nuvensa uma altura de 2000 ft
Tornando-se
de 20 às 15 UTC a 20 às 17 UTC
Vento 3 kt de este
Tornando-se
de 21 às 05 UTC a 21 às 07 UTC
Vento 10 kt de oes-sudoeste

TAF: FMCH 201100Z 2012/2118 25010KT 9999 FEW020 BECMG 2015/2017 10003KT BECMG 2105/2107 24010KT

Observações e previsões do tempo de mais de 4000 aeroportos (mensagens METAR e TAF).

As estações disponíveis são os pontos amarelos e vermelhos sobre o mapa.

Mova o rato sobre o mapa para ver o nome da estação.

Depois clique no ponto para visualizar as observações e previsões meteorológicas.

Para alterar o mapa : clique nos botões verdes com uma cruz preta para aumentar o zoom; no botão verde com uma pitada de zoom; ou nas setas verdes para mapas adjacentes.


METAR-TAF: